Thunder radar more information blitzortung!


Radar de pluja more information rain snow radar


Visita la nostra xarxa de llocs de meteo:

Template documentation
and downloads

And another site



No particular awareness of the weather is required.    There are no Weather-warnings

Pagina Historial Weather Underground text

Diari Resum Juny 9, 2017 Unitats:  Imperial    Mètric   Tant
« Previous Dia
SegĂźent Dia »
Diari Setmana Mensual Anual Personalitzada
  Maxima: Minima: Media:
Temperatura: 86.2 °F 61.5 °F 74.1 °F
Punt de rosada: 64.9 °F 54.7 °F 59.7 °F
Humitat: 90 % 42 % 63 %
Wind Speed: 12.7 mph 0 mph 3.5 mph
RĂ fegues de vent: 12.7 mph - -
Vent:- - SSE
Pression baro: 30.1 in 29.9 in -
Precipitacions: 0 in    
Historical Graphs
 
 
Dades de taula per Juny 9, 2017
Temps Temperatura Punt de rosada Pression baro Vent Wind Speed RĂ fegues de vent Humitat Rainfall Rate (Hourly)
00:01 65.1 °F 58.1 °F 30 in SW 3.5 mph 3.5 mph 78 % 0 in
00:05 62.8 °F 57.2 °F 30 in WSW 2 mph 2 mph 82 % 0 in
00:06 65.1 °F 58.5 °F 30 in SW 2.3 mph 2.9 mph 79 % 0 in
00:11 65.1 °F 58.5 °F 30 in SW 2.4 mph 2.4 mph 79 % 0 in
00:15 62.6 °F 57 °F 30 in Calm   3 mph 82 % 0 in
00:16 65.1 °F 58.5 °F 30 in WSW 2.3 mph 2.3 mph 79 % 0 in
00:21 65.1 °F 58.5 °F 30 in West 2.3 mph 2.3 mph 79 % 0 in
00:25 63 °F 57.4 °F 30 in WNW 2 mph 4 mph 82 % 0 in
00:26 65.1 °F 58.8 °F 30 in WSW 2.3 mph 2.3 mph 80 % 0 in
00:35 63.1 °F 57.2 °F 30 in SE 2 mph 4 mph 81 % 0 in
00:45 62.8 °F 57.2 °F 30 in South 2 mph 4 mph 82 % 0 in
00:55 62.4 °F 57.6 °F 30 in SE 1 mph 2 mph 84 % 0 in
01:05 62.2 °F 57.7 °F 30 in ESE 2 mph 2 mph 85 % 0 in
01:15 62.1 °F 57.2 °F 30 in East 3 mph 6 mph 84 % 0 in
01:25 62.1 °F 57.7 °F 30 in NE 1 mph 4 mph 86 % 0 in
01:45 62.1 °F 57.7 °F 30 in ENE 2 mph 4 mph 86 % 0 in
01:55 62.1 °F 58.5 °F 30 in Calm   3 mph 88 % 0 in
02:05 62.1 °F 58.5 °F 30 in South 1 mph 2 mph 88 % 0 in
02:15 62.6 °F 58.6 °F 30 in North 2 mph 5 mph 87 % 0 in
02:25 62.4 °F 59.2 °F 30.1 in NW 2 mph 2 mph 89 % 0 in
02:35 62.4 °F 59.2 °F 30 in SSW 2 mph 3 mph 89 % 0 in
02:45 62.2 °F 58.6 °F 30 in SSW 3 mph 4 mph 88 % 0 in
02:55 62.1 °F 58.5 °F 30 in SW 2 mph 4 mph 88 % 0 in
03:05 62.1 °F 59.2 °F 30 in WSW 2 mph 3 mph 90 % 0 in
03:15 62.4 °F 59.4 °F 30 in North 3 mph 3 mph 90 % 0 in
03:25 62.4 °F 59.4 °F 30.1 in NNE 2 mph 3 mph 90 % 0 in
03:35 62.6 °F 59.5 °F 30.1 in NE 1 mph 2 mph 90 % 0 in
03:45 63.3 °F 60.3 °F 30.1 in NNE 2 mph 3 mph 90 % 0 in
03:55 64.2 °F 61.2 °F 30.1 in ENE 1 mph 2 mph 90 % 0 in
04:05 64.4 °F 61.2 °F 30.1 in SSE 1 mph 3 mph 89 % 0 in
04:15 64.2 °F 61 °F 30.1 in SW 2 mph 3 mph 89 % 0 in
04:25 65.8 °F 62.4 °F 30 in Calm   2 mph 89 % 0 in
04:35 67.3 °F 63.7 °F 30.1 in SSW 1 mph 3 mph 88 % 0 in
04:45 67.6 °F 63 °F 30.1 in SSW 1 mph 2 mph 85 % 0 in
09:47 68 °F 63.3 °F 30.1 in SSE 2.3 mph 2.3 mph 85 % 0 in
09:52 68.2 °F 63.1 °F 30.1 in Calm     84 % 0 in
09:57 68.5 °F 63.1 °F 30.1 in South 1.2 mph   83 % 0 in
10:02 69.4 °F 64 °F 30.1 in South 3.5 mph 3.5 mph 83 % 0 in
10:03 69.3 °F 63.5 °F 30.1 in SSE 2.6 mph 2.6 mph 82 % 0 in
10:08 69.6 °F 63.5 °F 30.1 in ESE 2.3 mph 2.3 mph 81 % 0 in
10:13 70.5 °F 63.7 °F 30.1 in ENE 1.2 mph   79 % 0 in
10:18 71.4 °F 64.2 °F 30.1 in SW 2.3 mph 2.3 mph 78 % 0 in
10:23 71.8 °F 64.2 °F 30.1 in SSW 2.3 mph 2.3 mph 77 % 0 in
10:28 71.8 °F 63.3 °F 30.1 in East 3.5 mph 3.5 mph 75 % 0 in
10:33 72.5 °F 64 °F 30.1 in WSW 2.3 mph 2.3 mph 75 % 0 in
10:38 73.2 °F 64.8 °F 30.1 in ESE 2.3 mph 2.3 mph 75 % 0 in
10:43 74.1 °F 64.6 °F 30.1 in SSW 4.6 mph 4.6 mph 72 % 0 in
10:48 74.7 °F 64.9 °F 30.1 in ESE 2.3 mph 2.3 mph 72 % 0 in
10:53 74.7 °F 64.6 °F 30.1 in ESE 2.9 mph 2.9 mph 71 % 0 in
10:59 74.8 °F 64.4 °F 30.1 in East 2.3 mph 2.3 mph 70 % 0 in
11:04 75.2 °F 64.2 °F 30.1 in SW 1.6 mph 1.6 mph 69 % 0 in
11:09 75.9 °F 64.6 °F 30.1 in ENE 3.6 mph 3.6 mph 68 % 0 in
11:14 75 °F 63.3 °F 30.1 in South 5.8 mph 5.8 mph 67 % 0 in
11:19 76.5 °F 63.9 °F 30.1 in SE 2.3 mph 2.3 mph 65 % 0 in
11:24 77.5 °F 64.4 °F 30.1 in SE 3.3 mph 3.3 mph 64 % 0 in
11:29 76.8 °F 64.2 °F 30.1 in SW 4.6 mph 4.6 mph 65 % 0 in
11:34 77 °F 62.4 °F 30.1 in SW 4.6 mph 4.6 mph 61 % 0 in
11:37 77.5 °F 62.6 °F 30.1 in SW 2.3 mph 2.3 mph 60 % 0 in
11:42 78.1 °F 63.1 °F 30.1 in SSW 3.8 mph 3.8 mph 60 % 0 in
11:47 77.9 °F 63 °F 30.1 in SSW 6.9 mph 6.9 mph 60 % 0 in
11:52 78.1 °F 62.1 °F 30.1 in SW 5.8 mph 5.8 mph 58 % 0 in
11:57 78.3 °F 61.9 °F 30.1 in SSW 5.8 mph 5.8 mph 57 % 0 in
12:02 77.7 °F 60.8 °F 30 in SSW 5.8 mph 5.8 mph 56 % 0 in
12:07 77.5 °F 60.6 °F 30 in SW 6.9 mph 6.9 mph 56 % 0 in
12:12 77.7 °F 60.8 °F 30 in SW 6.9 mph 6.9 mph 56 % 0 in
12:17 78.1 °F 60.6 °F 30.1 in SSW 5.8 mph 5.8 mph 55 % 0 in
12:22 78.6 °F 61.2 °F 30.1 in SW 3.5 mph 3.5 mph 55 % 0 in
12:27 79.7 °F 62.1 °F 30.1 in SSW 3.5 mph 3.5 mph 55 % 0 in
12:32 79.7 °F 62.1 °F 30 in SW 3.5 mph 3.5 mph 55 % 0 in
12:37 81 °F 62.8 °F 30 in WSW 4.6 mph 4.6 mph 54 % 0 in
12:42 82 °F 63.1 °F 30 in SSW 1.6 mph 1.6 mph 53 % 0 in
12:47 81 °F 61.7 °F 30 in West 5.8 mph 5.8 mph 52 % 0 in
12:52 81.5 °F 62.2 °F 30 in SW 3.1 mph 3.1 mph 52 % 0 in
12:57 81.5 °F 61.5 °F 30 in SW 3.5 mph 3.5 mph 51 % 0 in
13:02 82 °F 62.1 °F 30 in SW 4.6 mph 4.6 mph 51 % 0 in
13:07 82.2 °F 61.7 °F 30 in WSW 5.8 mph 5.8 mph 50 % 0 in
13:12 82.6 °F 62.1 °F 30 in SW 4.6 mph 4.6 mph 50 % 0 in
13:17 82.4 °F 61.3 °F 30 in West 2.3 mph 2.3 mph 49 % 0 in
13:22 82.4 °F 60.6 °F 30 in SSW 5.8 mph 5.8 mph 48 % 0 in
13:27 82.6 °F 61 °F 30 in ENE 3.5 mph 3.5 mph 48 % 0 in
13:32 82.9 °F 60.6 °F 30 in SW 4.6 mph 4.6 mph 47 % 0 in
13:37 82.9 °F 61.2 °F 30 in SW 3.5 mph 3.5 mph 48 % 0 in
13:42 84 °F 61.5 °F 30 in WSW 2.4 mph 2.4 mph 47 % 0 in
13:47 83.8 °F 61.5 °F 30 in West 5.8 mph 5.8 mph 47 % 0 in
13:52 85.1 °F 62.6 °F 30 in SW 5.4 mph 5.4 mph 47 % 0 in
13:57 82.9 °F 60.1 °F 30 in South 4.6 mph 4.6 mph 46 % 0 in
14:02 82.9 °F 60.6 °F 30 in WSW 4.6 mph 4.6 mph 47 % 0 in
14:07 82.8 °F 61.2 °F 30 in ESE 5.9 mph 5.9 mph 48 % 0 in
14:12 81.9 °F 60.8 °F 30 in NNE 4.6 mph 4.6 mph 49 % 0 in
14:17 82.4 °F 61.3 °F 30 in ESE 3.8 mph 3.8 mph 49 % 0 in
14:22 83.7 °F 62.4 °F 30 in South 3.8 mph 3.8 mph 49 % 0 in
14:23 83.7 °F 62.4 °F 30 in South 4.7 mph 4.7 mph 49 % 0 in
14:28 84.2 °F 62.4 °F 30 in SSW 3.5 mph 3.5 mph 48 % 0 in
14:33 85.5 °F 63.5 °F 30 in SE 3.5 mph 3.5 mph 48 % 0 in
14:38 85.8 °F 63.9 °F 30 in West 3.5 mph 3.5 mph 48 % 0 in
14:43 85.8 °F 63.3 °F 30 in SE 4 mph 4 mph 47 % 0 in
14:48 86.2 °F 63 °F 30 in West 5.4 mph 5.4 mph 46 % 0 in
14:53 85.6 °F 62.4 °F 30 in South 6.9 mph 6.9 mph 46 % 0 in
14:58 85.1 °F 60.6 °F 30 in ESE 4.6 mph 4.6 mph 44 % 0 in
15:03 82.8 °F 61.5 °F 30 in ESE 5.8 mph 5.8 mph 49 % 0 in
15:08 82.4 °F 61.9 °F 30 in SE 5.8 mph 5.8 mph 50 % 0 in
15:13 83.5 °F 62.2 °F 30 in SSE 12.7 mph 12.7 mph 49 % 0 in
15:18 84.6 °F 61.5 °F 30 in South 2.3 mph 2.3 mph 46 % 0 in
15:23 85.3 °F 61.5 °F 30 in South 5.8 mph 5.8 mph 45 % 0 in
15:28 84.6 °F 61.5 °F 30 in NNE 5.8 mph 5.8 mph 46 % 0 in
15:33 84.2 °F 61.2 °F 30 in West 3.5 mph 3.5 mph 46 % 0 in
15:38 85.1 °F 60.6 °F 30 in SE 3.5 mph 3.5 mph 44 % 0 in
15:43 85.1 °F 59.4 °F 30 in SSE 3.5 mph 3.5 mph 42 % 0 in
15:48 85.1 °F 60.1 °F 30 in SSE 5.4 mph 5.4 mph 43 % 0 in
15:53 83.7 °F 61.3 °F 30 in ESE 5.8 mph 5.8 mph 47 % 0 in
15:58 83.5 °F 61.2 °F 30 in SSW 5.8 mph 5.8 mph 47 % 0 in
16:03 82.8 °F 61.2 °F 30 in NNE 3.5 mph 3.5 mph 48 % 0 in
16:08 82 °F 61 °F 30 in SE 9.2 mph 9.2 mph 49 % 0 in
16:13 82.8 °F 60.4 °F 30 in NW 6.9 mph 6.9 mph 47 % 0 in
16:18 83.7 °F 60.6 °F 30 in West 5.9 mph 5.9 mph 46 % 0 in
16:23 83.7 °F 60.1 °F 30 in SE 3.8 mph 3.8 mph 45 % 0 in
16:28 82.4 °F 60.1 °F 30 in SSE 8.1 mph 8.1 mph 47 % 0 in
16:33 83.1 °F 61.3 °F 30 in SW 5.8 mph 5.8 mph 48 % 0 in
16:38 84 °F 61 °F 30 in SSW 4.6 mph 4.6 mph 46 % 0 in
16:43 84.2 °F 59.9 °F 30 in East 5.8 mph 5.8 mph 44 % 0 in
16:48 82.8 °F 60.4 °F 30 in SSW 4.6 mph 4.6 mph 47 % 0 in
16:53 83.3 °F 61 °F 30 in South 3.5 mph 3.5 mph 47 % 0 in
16:58 84.2 °F 60.6 °F 30 in WSW 6.2 mph 6.2 mph 45 % 0 in
16:59 84.2 °F 60.6 °F 30 in SW 5.8 mph 5.8 mph 45 % 0 in
17:04 84.4 °F 60.6 °F 30 in SSW 9.2 mph 9.2 mph 45 % 0 in
17:09 83.7 °F 60.6 °F 30 in WSW 5.4 mph 5.4 mph 46 % 0 in
17:14 82.9 °F 59.4 °F 30 in SW 8.1 mph 8.1 mph 45 % 0 in
17:19 82.9 °F 59.4 °F 30 in West 3.5 mph 3.5 mph 45 % 0 in
17:24 83.5 °F 59.9 °F 30 in SSW 7.1 mph 7.1 mph 45 % 0 in
17:29 82.9 °F 59.4 °F 30 in West 3.6 mph 3.6 mph 45 % 0 in
17:34 83.3 °F 59.7 °F 30 in West 5.6 mph 5.6 mph 45 % 0 in
17:39 82.6 °F 59.2 °F 30 in SSE 6.9 mph 6.9 mph 45 % 0 in
17:44 83.3 °F 59.7 °F 30 in SW 5.9 mph 5.9 mph 45 % 0 in
17:49 82.6 °F 59.2 °F 30 in SW 5.8 mph 5.8 mph 45 % 0 in
17:54 82.6 °F 59.2 °F 30 in SW 8.1 mph 8.1 mph 45 % 0 in
17:59 82.6 °F 58.5 °F 30 in SW 4.7 mph 4.7 mph 44 % 0 in
18:04 83.1 °F 59.5 °F 30 in SW 3.5 mph 3.5 mph 45 % 0 in
18:09 83.3 °F 59.7 °F 30 in WSW 4.7 mph 4.7 mph 45 % 0 in
18:14 83.1 °F 59.5 °F 30 in SSE 5.8 mph 5.8 mph 45 % 0 in
18:19 82.9 °F 59.4 °F 30 in West 4.6 mph 4.6 mph 45 % 0 in
18:24 82.8 °F 58.6 °F 30 in West 3.5 mph 3.5 mph 44 % 0 in
18:29 82.6 °F 58.5 °F 30 in WSW 3.6 mph 3.6 mph 44 % 0 in
18:34 82 °F 57.4 °F 30 in North 2.9 mph 2.9 mph 43 % 0 in
18:39 81.7 °F 57.6 °F 30 in South 3.5 mph 3.5 mph 44 % 0 in
18:44 81.3 °F 57.4 °F 30 in WSW 4.6 mph 4.6 mph 44 % 0 in
18:49 79 °F 55.8 °F 30 in SE 6.9 mph 6.9 mph 45 % 0 in
18:54 77.9 °F 54.9 °F 30 in NE 10.4 mph 10.4 mph 45 % 0 in
18:59 77.7 °F 55.2 °F 30 in ENE 8.1 mph 8.1 mph 46 % 0 in
19:04 77.2 °F 54.9 °F 29.9 in NNW 3.5 mph 3.5 mph 46 % 0 in
19:09 77.4 °F 55.6 °F 29.9 in South 4.6 mph 4.6 mph 47 % 0 in
19:14 78.3 °F 55.8 °F 29.9 in SW 8.1 mph 8.1 mph 46 % 0 in
19:16 78.6 °F 56.1 °F 29.9 in WSW 8.1 mph 8.1 mph 46 % 0 in
19:20 67.1 °F 58.5 °F 30.1 in Calm   1 mph 74 % 0 in
19:21 78.4 °F 55.9 °F 30 in SW 4.6 mph 4.6 mph 46 % 0 in
19:26 78.6 °F 56.1 °F 30 in SSW 3.5 mph 3.5 mph 46 % 0 in
19:30 66.9 °F 58.5 °F 30.1 in Calm     74 % 0 in
19:31 78.8 °F 56.3 °F 30 in South 3.5 mph 3.5 mph 46 % 0 in
19:36 79 °F 56.5 °F 30 in WSW 2.3 mph 2.3 mph 46 % 0 in
19:40 66.6 °F 58.5 °F 30.1 in Calm     75 % 0 in
19:41 78.4 °F 55.2 °F 30 in South 4.6 mph 4.6 mph 45 % 0 in
19:46 77.5 °F 55 °F 30 in WSW 2.3 mph 2.3 mph 46 % 0 in
19:50 66.6 °F 58.5 °F 30.1 in Calm     75 % 0 in
19:51 77.7 °F 55.2 °F 30 in SSW 3.5 mph 3.5 mph 46 % 0 in
19:56 77.9 °F 55.6 °F 30 in SW 2.3 mph 2.3 mph 46 % 0 in
20:00 66.4 °F 58.3 °F 30.1 in Calm     75 % 0 in
20:01 77.5 °F 55 °F 30 in SW 5.8 mph 5.8 mph 46 % 0 in
20:06 77 °F 54.7 °F 30 in ESE 2.3 mph 2.3 mph 46 % 0 in
20:10 66 °F 58.3 °F 30.1 in Calm     76 % 0 in
20:11 76.8 °F 55 °F 30 in SW 2.9 mph 2.9 mph 47 % 0 in
20:16 76.3 °F 55.8 °F 30 in NE 2.4 mph 2.9 mph 49 % 0 in
20:20 65.8 °F 58.5 °F 30.1 in Calm   1 mph 77 % 0 in
20:21 75 °F 55.8 °F 30 in ENE 5.9 mph 5.9 mph 51 % 0 in
20:26 74.3 °F 56.7 °F 30 in East 6.9 mph 6.9 mph 54 % 0 in
20:30 65.7 °F 58.3 °F 30.1 in West 1 mph 2 mph 77 % 0 in
20:31 73.9 °F 57.4 °F 30 in ENE 4.6 mph 4.6 mph 56 % 0 in
20:36 73.8 °F 57.6 °F 30 in ESE 3.5 mph 3.5 mph 57 % 0 in
20:40 65.3 °F 57.9 °F 30.1 in Calm   2 mph 77 % 0 in
20:41 73.4 °F 57.7 °F 30 in ESE 6.9 mph 6.9 mph 58 % 0 in
20:46 72.9 °F 58.3 °F 30 in ENE 5.8 mph 5.8 mph 60 % 0 in
20:50 65.3 °F 58.3 °F 30.1 in Calm   1 mph 78 % 0 in
20:51 72.7 °F 57.9 °F 30 in East 5.8 mph 5.8 mph 60 % 0 in
20:56 72.5 °F 58.3 °F 30 in East 4.6 mph 4.6 mph 61 % 0 in
21:00 64.9 °F 57.6 °F 30.1 in East 1 mph 1 mph 77 % 0 in
21:01 72.3 °F 58.1 °F 30 in ESE 5.8 mph 5.8 mph 61 % 0 in
21:06 72.1 °F 58.5 °F 30 in East 3.5 mph 3.5 mph 62 % 0 in
21:10 64.2 °F 56.8 °F 30.1 in SSW 2 mph 2 mph 77 % 0 in
21:11 72 °F 58.3 °F 30 in SE 4.6 mph 4.6 mph 62 % 0 in
21:16 72 °F 58.3 °F 30 in ENE 3.8 mph 3.8 mph 62 % 0 in
21:20 64.2 °F 57.2 °F 30.1 in WSW 1 mph 1 mph 78 % 0 in
21:21 71.6 °F 58.3 °F 30 in East 3.5 mph 3.6 mph 63 % 0 in
21:26 71.4 °F 58.6 °F 30 in ENE 3.6 mph 3.6 mph 64 % 0 in
21:30 64 °F 57.4 °F 30 in Calm     79 % 0 in
21:31 71.2 °F 58.8 °F 30 in ESE 3.5 mph 3.5 mph 65 % 0 in
21:36 71.1 °F 59.2 °F 30 in ENE 3.5 mph 3.5 mph 66 % 0 in
21:40 64 °F 57.4 °F 30.1 in Calm     79 % 0 in
21:41 70.9 °F 59 °F 30 in NNE 4.3 mph 4.3 mph 66 % 0 in
21:46 70.7 °F 59.2 °F 30 in ESE 3.5 mph 3.5 mph 67 % 0 in
21:50 64 °F 57.4 °F 30.1 in Calm   1 mph 79 % 0 in
21:51 70.5 °F 59 °F 30 in NE 4.6 mph 4.6 mph 67 % 0 in
21:56 70.3 °F 58.8 °F 30 in East 4 mph 4 mph 67 % 0 in
22:00 63.7 °F 57 °F 30.1 in Calm   1 mph 79 % 0 in
22:01 70.2 °F 59.2 °F 30 in ENE 3.1 mph 3.1 mph 68 % 0 in
22:06 70.2 °F 59.2 °F 30 in NE 2.6 mph 2.6 mph 68 % 0 in
22:10 63.5 °F 56.5 °F 30.1 in WSW 2 mph 2 mph 78 % 0 in
22:11 70 °F 59.4 °F 30 in ENE 4.6 mph 4.6 mph 69 % 0 in
22:16 70 °F 59.4 °F 30 in NNE 2.4 mph 2.4 mph 69 % 0 in
22:20 63.1 °F 56.5 °F 30.1 in Calm   1 mph 79 % 0 in
22:21 69.8 °F 59.2 °F 30 in NNE 2.9 mph 2.9 mph 69 % 0 in
22:26 69.6 °F 59 °F 30 in NNE 2.4 mph 2.4 mph 69 % 0 in
22:30 62.6 °F 55.9 °F 30.1 in Calm   2 mph 79 % 0 in
22:31 69.6 °F 59 °F 30 in NNW 3.5 mph 3.5 mph 69 % 0 in
22:36 69.4 °F 59.2 °F 30 in North 2.3 mph 2.3 mph 70 % 0 in
22:40 62.4 °F 56.1 °F 30.1 in SW 2 mph 2 mph 80 % 0 in
22:41 69.4 °F 59.2 °F 30 in NE 2.3 mph 2.3 mph 70 % 0 in
22:46 69.3 °F 59.2 °F 30 in NNE 2.4 mph 2.4 mph 70 % 0 in
22:50 61.9 °F 55.6 °F 30.1 in WSW 2 mph 3 mph 80 % 0 in
22:51 69.1 °F 58.8 °F 30.1 in NNE 2.4 mph 2.6 mph 70 % 0 in
22:56 69.1 °F 59.4 °F 30.1 in NNE 3.5 mph 3.5 mph 71 % 0 in
23:00 61.7 °F 55.8 °F 30.1 in Calm   1 mph 81 % 0 in
23:01 68.9 °F 59.2 °F 30.1 in NNE 4.6 mph 4.6 mph 71 % 0 in
23:06 68.7 °F 59.4 °F 30.1 in NE 3.5 mph 3.5 mph 72 % 0 in
23:10 61.5 °F 55.6 °F 30.1 in SW 1 mph 2 mph 81 % 0 in
23:11 68.7 °F 59.4 °F 30.1 in NE 2.9 mph 2.9 mph 72 % 0 in
23:16 68.5 °F 59.2 °F 30.1 in NNE 3.5 mph 3.5 mph 72 % 0 in
23:20 61.5 °F 55.6 °F 30.1 in SW 1 mph 2 mph 81 % 0 in
23:21 68.5 °F 59.2 °F 30.1 in NNE 2.3 mph 2.4 mph 72 % 0 in
23:26 68.4 °F 59 °F 30.1 in NNE 2.3 mph 2.3 mph 72 % 0 in
23:30 61.7 °F 56.1 °F 30.1 in Calm     82 % 0 in
23:31 68.4 °F 59 °F 30.1 in NE 2.9 mph 2.9 mph 72 % 0 in
23:36 68.2 °F 58.8 °F 30.1 in North 2.6 mph 2.6 mph 72 % 0 in
23:40 62.1 °F 56.5 °F 30.1 in Calm   1 mph 82 % 0 in
23:41 68.2 °F 58.8 °F 30.1 in NE 3.5 mph 3.5 mph 72 % 0 in
23:46 68 °F 58.6 °F 30.1 in NNE 1.2 mph   72 % 0 in
23:50 62.2 °F 56.7 °F 30.1 in Calm     82 % 0 in
23:51 67.8 °F 58.8 °F 30.1 in NNE 0.9 mph   73 % 0 in
23:56 67.6 °F 58.6 °F 30.1 in North 2.3 mph 2.3 mph 73 % 0 in
Meteo Sesrovires
Elogis d' Weather Underground - 3.75 mb

Guio original per  Jim McMurry - jmcmurry@mwt.net Adaptat per a la plantilla per  Wim van der Kuil - Leuven-Template.eu

Trobareu la nostra informacio del temps tambe a:

Weather Underground

AWEKAS